createdAt,value
2023-05-15T00:01:47.636Z,11.01
2023-05-15T00:04:16.376Z,11.10
2023-05-15T00:06:44.290Z,11.05
2023-05-15T00:09:12.388Z,10.97
2023-05-15T00:11:40.234Z,10.89
2023-05-15T00:14:08.305Z,10.83
2023-05-15T00:16:37.669Z,10.85
2023-05-15T00:19:05.604Z,10.83
2023-05-15T00:21:33.458Z,11.02
2023-05-15T00:24:01.288Z,11.07
2023-05-15T00:26:29.079Z,11.14
2023-05-15T00:28:56.913Z,11.02
2023-05-15T00:31:25.336Z,10.77
2023-05-15T00:33:54.620Z,10.90
2023-05-15T00:36:24.251Z,10.95
2023-05-15T00:38:52.081Z,10.96
2023-05-15T00:41:21.629Z,11.05
2023-05-15T00:43:51.110Z,10.87
2023-05-15T00:46:20.860Z,10.96
2023-05-15T00:48:51.735Z,10.87
2023-05-15T00:51:20.944Z,11.01
2023-05-15T00:53:48.844Z,11.00
2023-05-15T00:56:18.317Z,11.11
2023-05-15T00:58:47.300Z,11.12
2023-05-15T01:01:16.878Z,11.17
2023-05-15T01:03:45.398Z,10.97
2023-05-15T01:06:13.587Z,11.17
2023-05-15T01:08:45.085Z,10.92
2023-05-15T01:11:14.058Z,10.81
2023-05-15T01:13:42.320Z,10.87
2023-05-15T01:16:11.440Z,10.80
2023-05-15T01:18:39.336Z,10.89
2023-05-15T01:21:38.772Z,10.93
2023-05-15T01:24:19.461Z,11.23
2023-05-15T01:27:14.501Z,11.20
2023-05-15T01:29:49.277Z,11.23
2023-05-15T01:32:20.970Z,11.31
2023-05-15T01:34:58.386Z,11.04
2023-05-15T01:37:30.064Z,11.27
2023-05-15T01:40:04.730Z,11.19
2023-05-15T01:42:36.122Z,11.36
2023-05-15T01:45:06.775Z,11.31
2023-05-15T01:47:39.247Z,11.19
2023-05-15T01:50:11.104Z,10.84
2023-05-15T01:52:43.792Z,10.89
2023-05-15T01:55:13.058Z,10.78
2023-05-15T01:57:43.323Z,10.96
2023-05-15T02:00:12.604Z,11.04
2023-05-15T02:02:44.158Z,11.10
2023-05-15T02:05:12.996Z,11.04
2023-05-15T02:07:43.051Z,11.06
2023-05-15T02:10:13.172Z,10.70
2023-05-15T02:12:43.351Z,10.49
2023-05-15T02:15:12.438Z,10.12
2023-05-15T02:17:41.945Z,10.03
2023-05-15T02:20:10.464Z,9.96
2023-05-15T02:22:39.078Z,9.93
2023-05-15T02:25:07.293Z,9.82
2023-05-15T02:27:42.610Z,9.79
2023-05-15T02:30:21.536Z,9.90
2023-05-15T02:32:55.455Z,10.06
2023-05-15T02:35:32.830Z,10.30
2023-05-15T02:38:04.112Z,10.46
2023-05-15T02:40:34.664Z,10.48
2023-05-15T02:43:03.231Z,10.28
2023-05-15T02:45:33.470Z,10.32
2023-05-15T02:48:02.422Z,10.36
2023-05-15T02:50:30.495Z,10.40
2023-05-15T02:53:03.533Z,10.63
2023-05-15T02:55:31.767Z,10.64
2023-05-15T02:58:00.042Z,10.29
2023-05-15T03:00:27.844Z,10.06
2023-05-15T03:02:57.054Z,10.12
2023-05-15T03:05:25.153Z,10.07
2023-05-15T03:07:53.262Z,10.26
2023-05-15T03:10:23.733Z,10.48
2023-05-15T03:12:51.555Z,10.42
2023-05-15T03:15:20.242Z,10.66
2023-05-15T03:17:48.056Z,10.81
2023-05-15T03:20:17.967Z,10.53
2023-05-15T03:22:45.744Z,10.57
2023-05-15T03:25:13.609Z,10.54
2023-05-15T03:27:41.371Z,10.69
2023-05-15T03:30:10.420Z,10.55
2023-05-15T03:32:38.364Z,10.40
2023-05-15T03:35:06.996Z,10.45
2023-05-15T03:37:36.268Z,10.22
2023-05-15T03:40:04.533Z,10.13
2023-05-15T03:42:32.309Z,10.34
2023-05-15T03:45:00.061Z,10.69
2023-05-15T03:47:27.908Z,10.80
2023-05-15T03:49:55.681Z,10.52
2023-05-15T03:52:23.568Z,10.53
2023-05-15T03:54:52.719Z,10.56
2023-05-15T03:57:20.539Z,10.79
2023-05-15T03:59:48.349Z,10.84
2023-05-15T04:02:16.153Z,11.03
2023-05-15T04:04:44.596Z,10.69
2023-05-15T04:07:12.471Z,10.63
2023-05-15T04:09:40.238Z,10.55
2023-05-15T04:12:09.867Z,10.55
2023-05-15T04:14:37.640Z,10.43
2023-05-15T04:17:05.788Z,10.26
2023-05-15T04:19:33.557Z,10.39
2023-05-15T04:22:01.319Z,10.48
2023-05-15T04:24:29.097Z,10.39
2023-05-15T04:26:56.917Z,10.39
2023-05-15T04:29:26.226Z,10.28
2023-05-15T04:31:54.387Z,10.31
2023-05-15T04:34:22.203Z,10.28
2023-05-15T04:36:50.846Z,10.33
2023-05-15T04:39:18.650Z,10.48
2023-05-15T04:41:46.458Z,10.60
2023-05-15T04:44:14.223Z,10.73
2023-05-15T04:46:43.449Z,10.86
2023-05-15T04:49:11.265Z,10.73
2023-05-15T04:51:39.107Z,10.98
2023-05-15T04:54:06.988Z,11.01
2023-05-15T04:56:34.837Z,10.75
2023-05-15T04:59:02.854Z,10.78
2023-05-15T05:01:30.895Z,10.99
2023-05-15T05:04:00.119Z,10.96
2023-05-15T05:06:29.816Z,11.07
2023-05-15T05:08:58.309Z,11.08
2023-05-15T05:11:26.104Z,10.81
2023-05-15T05:13:54.004Z,11.08
2023-05-15T05:16:21.851Z,11.18
2023-05-15T05:18:50.566Z,11.19
2023-05-15T05:21:19.779Z,11.04
2023-05-15T05:23:47.860Z,10.85
2023-05-15T05:26:15.677Z,11.03
2023-05-15T05:28:43.545Z,11.06
2023-05-15T05:31:11.372Z,11.19
2023-05-15T05:33:39.220Z,11.36
2023-05-15T05:36:07.838Z,11.42
2023-05-15T05:38:37.446Z,11.38
2023-05-15T05:41:05.274Z,11.52
2023-05-15T05:43:33.169Z,11.75
2023-05-15T05:46:01.090Z,11.57
2023-05-15T05:48:28.870Z,11.58
2023-05-15T05:50:56.713Z,11.61
2023-05-15T05:53:24.650Z,11.35
2023-05-15T05:55:53.942Z,11.35
2023-05-15T05:58:26.089Z,11.60
2023-05-15T06:00:54.469Z,11.61
2023-05-15T06:03:22.612Z,11.69
2023-05-15T06:05:50.938Z,11.80
2023-05-15T06:08:19.595Z,11.73
2023-05-15T06:10:47.598Z,11.49
2023-05-15T06:13:16.818Z,11.65
2023-05-15T06:15:45.674Z,11.70
2023-05-15T06:18:13.564Z,11.82
2023-05-15T06:20:42.670Z,12.08
2023-05-15T06:23:10.518Z,12.01
2023-05-15T06:25:38.531Z,11.96
2023-05-15T06:28:07.184Z,12.14
2023-05-15T06:30:36.455Z,12.10
2023-05-15T06:33:04.385Z,12.29
2023-05-15T06:35:32.204Z,12.18
2023-05-15T06:38:00.004Z,12.11
2023-05-15T06:40:28.165Z,12.24
2023-05-15T06:42:56.178Z,12.27
2023-05-15T06:45:24.064Z,12.42
2023-05-15T06:47:53.514Z,12.72
2023-05-15T06:50:21.514Z,12.46
2023-05-15T06:52:49.476Z,12.37
2023-05-15T06:55:18.490Z,12.70
2023-05-15T06:57:46.274Z,12.55
2023-05-15T07:00:15.452Z,12.37
2023-05-15T07:02:44.001Z,12.48
2023-05-15T07:05:15.350Z,12.27
2023-05-15T07:07:43.331Z,12.25
2023-05-15T07:10:14.514Z,12.22
2023-05-15T07:12:42.344Z,12.35
2023-05-15T07:15:11.130Z,12.48
2023-05-15T07:17:39.222Z,12.35
2023-05-15T07:20:08.106Z,12.49
2023-05-15T07:22:44.372Z,12.39
2023-05-15T07:25:16.964Z,12.52
2023-05-15T07:27:44.970Z,12.64
2023-05-15T07:30:13.699Z,12.75
2023-05-15T07:32:49.849Z,12.90
2023-05-15T07:35:18.389Z,12.83
2023-05-15T07:37:47.676Z,12.63
2023-05-15T07:40:16.431Z,12.96
2023-05-15T07:42:45.530Z,13.51
2023-05-15T07:45:13.876Z,13.47
2023-05-15T07:47:46.708Z,13.29
2023-05-15T07:50:14.705Z,12.97
2023-05-15T07:52:45.290Z,13.02
2023-05-15T07:55:14.689Z,13.08
2023-05-15T07:57:42.634Z,13.36
2023-05-15T08:00:13.685Z,13.44
2023-05-15T08:02:46.107Z,13.25
2023-05-15T08:05:16.867Z,13.40
2023-05-15T08:07:44.784Z,13.75
2023-05-15T08:10:13.990Z,13.83
2023-05-15T08:12:46.187Z,14.04
2023-05-15T08:15:14.413Z,14.03
2023-05-15T08:17:42.512Z,14.31
2023-05-15T08:20:11.669Z,14.59
2023-05-15T08:22:39.545Z,14.61
2023-05-15T08:25:08.852Z,14.36
2023-05-15T08:27:38.166Z,14.40
2023-05-15T08:30:07.298Z,14.33
2023-05-15T08:32:35.345Z,14.14
2023-05-15T08:35:03.219Z,14.33
2023-05-15T08:37:31.171Z,14.21
2023-05-15T08:39:59.057Z,14.24
2023-05-15T08:42:34.410Z,14.11
2023-05-15T08:45:04.106Z,14.14
2023-05-15T08:47:38.448Z,14.04
2023-05-15T08:50:10.156Z,13.93
2023-05-15T08:52:38.701Z,13.80
2023-05-15T08:55:07.265Z,13.65
2023-05-15T08:57:36.106Z,13.54
2023-05-15T09:00:09.137Z,13.40
2023-05-15T09:02:37.735Z,13.77
2023-05-15T09:05:07.026Z,13.99
2023-05-15T09:07:35.642Z,14.10
2023-05-15T09:10:04.710Z,14.48
2023-05-15T09:12:35.822Z,14.90
2023-05-15T09:15:12.543Z,15.35
2023-05-15T09:17:42.670Z,15.05
2023-05-15T09:20:26.857Z,15.13
2023-05-15T09:22:55.061Z,15.52
2023-05-15T09:25:37.517Z,15.67
2023-05-15T09:28:06.416Z,15.55
2023-05-15T09:30:39.149Z,14.96
2023-05-15T09:33:07.142Z,14.68
2023-05-15T09:35:36.584Z,15.36
2023-05-15T09:38:09.057Z,15.23
2023-05-15T09:40:37.082Z,15.11
2023-05-15T09:43:04.930Z,15.24
2023-05-15T09:45:32.859Z,14.95
2023-05-15T09:48:06.402Z,15.50
2023-05-15T09:50:39.708Z,15.92
2023-05-15T09:53:07.623Z,16.48
2023-05-15T09:55:36.369Z,16.66
2023-05-15T09:58:09.296Z,16.86
2023-05-15T10:00:48.394Z,17.55
2023-05-15T10:03:20.587Z,18.24
2023-05-15T10:05:48.636Z,17.59
2023-05-15T10:08:17.524Z,16.74
2023-05-15T10:10:47.073Z,15.76
2023-05-15T10:13:15.105Z,15.21
2023-05-15T10:15:43.602Z,14.94
2023-05-15T10:18:13.193Z,14.67
2023-05-15T10:20:42.959Z,14.52
2023-05-15T10:23:11.869Z,14.54
2023-05-15T10:25:43.521Z,14.88
2023-05-15T10:28:13.109Z,14.68
2023-05-15T10:30:41.154Z,14.78
2023-05-15T10:33:09.688Z,15.00
2023-05-15T10:35:40.140Z,15.19
2023-05-15T10:38:10.342Z,15.35
2023-05-15T10:40:39.254Z,15.93
2023-05-15T10:43:10.229Z,16.13
2023-05-15T10:45:38.743Z,16.27
2023-05-15T10:48:09.122Z,15.95
2023-05-15T10:50:38.050Z,16.14
2023-05-15T10:53:05.923Z,15.96
2023-05-15T10:55:35.162Z,16.11
2023-05-15T10:58:03.050Z,16.00
2023-05-15T11:00:32.267Z,16.41
2023-05-15T11:03:01.074Z,16.88
2023-05-15T11:05:31.193Z,17.26
2023-05-15T11:08:25.953Z,17.43
2023-05-15T11:10:55.503Z,17.53
2023-05-15T11:13:23.399Z,17.41
2023-05-15T11:15:52.308Z,17.32
2023-05-15T11:18:21.652Z,17.33
2023-05-15T11:21:08.781Z,17.10
2023-05-15T11:23:41.300Z,16.51
2023-05-15T11:26:14.490Z,16.64
2023-05-15T11:28:44.534Z,16.85
2023-05-15T11:31:12.548Z,16.82
2023-05-15T11:33:41.506Z,16.81
2023-05-15T11:36:09.601Z,16.07
2023-05-15T11:38:41.049Z,15.82
2023-05-15T11:41:21.845Z,15.33
2023-05-15T11:43:51.259Z,15.22
2023-05-15T11:46:19.186Z,15.16
2023-05-15T11:48:48.808Z,14.85
2023-05-15T11:51:19.654Z,14.25
2023-05-15T11:53:51.306Z,13.54
2023-05-15T11:56:21.697Z,13.17
2023-05-15T11:58:50.388Z,12.92
2023-05-15T12:01:18.379Z,12.92
2023-05-15T12:03:48.892Z,12.92
2023-05-15T12:06:17.621Z,12.77
2023-05-15T12:08:45.932Z,12.86
2023-05-15T12:11:15.654Z,13.02
2023-05-15T12:13:44.851Z,12.89
2023-05-15T12:16:12.890Z,12.82
2023-05-15T12:18:40.934Z,12.99
2023-05-15T12:21:11.035Z,12.89
2023-05-15T12:23:38.937Z,12.79
2023-05-15T12:26:07.025Z,12.46
2023-05-15T12:28:36.719Z,11.70
2023-05-15T12:31:06.395Z,11.28
2023-05-15T12:33:34.457Z,10.81
2023-05-15T12:36:02.456Z,10.76
2023-05-15T12:38:34.173Z,10.82
2023-05-15T12:41:02.170Z,10.94
2023-05-15T12:43:32.743Z,10.99
2023-05-15T12:46:00.842Z,11.23
2023-05-15T12:48:33.559Z,11.48
2023-05-15T12:51:08.359Z,11.73
2023-05-15T12:53:38.770Z,11.67
2023-05-15T12:56:07.411Z,11.69
2023-05-15T12:58:35.542Z,11.86
2023-05-15T13:01:04.801Z,12.08
2023-05-15T13:03:35.006Z,12.60
2023-05-15T13:06:04.063Z,12.97
2023-05-15T13:08:31.933Z,13.44
2023-05-15T13:11:00.921Z,13.90
2023-05-15T13:13:43.208Z,14.14
2023-05-15T13:16:19.897Z,14.47
2023-05-15T13:18:49.211Z,14.34
2023-05-15T13:21:17.148Z,14.80
2023-05-15T13:23:44.932Z,15.08
2023-05-15T13:26:12.891Z,15.21
2023-05-15T13:28:40.670Z,15.27
2023-05-15T13:31:08.553Z,14.82
2023-05-15T13:33:36.638Z,14.78
2023-05-15T13:36:06.524Z,14.67
2023-05-15T13:38:34.450Z,14.24
2023-05-15T13:41:02.306Z,13.98
2023-05-15T13:43:30.112Z,13.65
2023-05-15T13:45:57.990Z,13.57
2023-05-15T13:48:25.983Z,13.56
2023-05-15T13:50:53.940Z,13.45
2023-05-15T13:53:23.103Z,13.45
2023-05-15T13:55:50.879Z,13.43
2023-05-15T13:58:18.649Z,13.50
2023-05-15T14:00:46.470Z,13.57
2023-05-15T14:03:15.248Z,13.63
2023-05-15T14:05:43.387Z,13.55
2023-05-15T14:08:11.379Z,13.61
2023-05-15T14:10:40.558Z,13.90
2023-05-15T14:13:08.351Z,13.90
2023-05-15T14:15:36.120Z,13.85
2023-05-15T14:18:04.034Z,13.45
2023-05-15T14:20:31.926Z,13.21
2023-05-15T14:22:59.786Z,13.14
2023-05-15T14:25:27.785Z,13.17
2023-05-15T14:27:57.005Z,13.01
2023-05-15T14:30:25.007Z,12.86
2023-05-15T14:32:52.979Z,12.62
2023-05-15T14:35:21.062Z,12.35
2023-05-15T14:37:48.842Z,12.16
2023-05-15T14:40:16.787Z,11.64
2023-05-15T14:42:44.546Z,11.32
2023-05-15T14:45:14.288Z,11.37
2023-05-15T14:47:42.232Z,11.32
2023-05-15T14:50:10.679Z,11.12
2023-05-15T14:52:38.998Z,11.02
2023-05-15T14:55:09.721Z,11.03
2023-05-15T14:57:37.962Z,10.87
2023-05-15T15:00:08.266Z,10.90
2023-05-15T15:02:37.900Z,11.11
2023-05-15T15:05:06.542Z,11.21
2023-05-15T15:08:01.646Z,11.29
2023-05-15T15:10:29.750Z,11.42
2023-05-15T15:12:57.758Z,11.57
2023-05-15T15:15:25.742Z,11.67
2023-05-15T15:17:56.144Z,11.75
2023-05-15T15:20:25.423Z,11.76
2023-05-15T15:22:53.855Z,11.79
2023-05-15T15:25:22.448Z,11.70
2023-05-15T15:27:50.684Z,11.80
2023-05-15T15:30:18.724Z,11.98
2023-05-15T15:32:46.970Z,12.08
2023-05-15T15:35:16.158Z,12.29
2023-05-15T15:37:43.966Z,12.74
2023-05-15T15:40:12.117Z,12.73
2023-05-15T15:42:40.062Z,13.03
2023-05-15T15:45:08.796Z,13.36
2023-05-15T15:47:36.681Z,13.46
2023-05-15T15:50:04.822Z,13.42
2023-05-15T15:52:34.102Z,13.28
2023-05-15T15:55:01.896Z,13.39
2023-05-15T15:57:31.216Z,13.32
2023-05-15T15:59:59.040Z,13.36
2023-05-15T16:02:28.240Z,13.24
2023-05-15T16:04:56.235Z,13.13
2023-05-15T16:07:24.090Z,13.03
2023-05-15T16:10:10.037Z,12.91
2023-05-15T16:12:39.835Z,12.99
2023-05-15T16:15:21.643Z,12.99
2023-05-15T16:17:52.567Z,13.06
2023-05-15T16:20:20.999Z,13.13
2023-05-15T16:22:48.812Z,13.12
2023-05-15T16:25:17.966Z,13.32
2023-05-15T16:27:45.726Z,13.44
2023-05-15T16:30:14.803Z,13.56
2023-05-15T16:32:42.643Z,13.50
2023-05-15T16:35:10.680Z,13.67
2023-05-15T16:37:38.880Z,13.70
2023-05-15T16:40:08.474Z,14.05
2023-05-15T16:42:38.612Z,13.77
2023-05-15T16:45:08.406Z,13.93
2023-05-15T16:47:39.474Z,13.91
2023-05-15T16:50:08.555Z,13.58
2023-05-15T16:52:39.088Z,13.37
2023-05-15T16:55:07.788Z,13.23
2023-05-15T16:57:36.992Z,13.22
2023-05-15T17:00:05.362Z,13.14
2023-05-15T17:02:33.292Z,13.06
2023-05-15T17:05:01.205Z,12.98
2023-05-15T17:07:29.037Z,12.94
2023-05-15T17:09:57.082Z,12.86
2023-05-15T17:12:24.944Z,12.84
2023-05-15T17:14:54.066Z,12.87
2023-05-15T17:17:23.237Z,13.01
2023-05-15T17:19:51.129Z,13.11
2023-05-15T17:22:18.869Z,13.31
2023-05-15T17:24:51.291Z,13.36
2023-05-15T17:27:20.664Z,13.54
2023-05-15T17:29:48.910Z,13.89
2023-05-15T17:32:18.774Z,13.70
2023-05-15T17:34:46.870Z,13.42
2023-05-15T17:37:15.064Z,13.45
2023-05-15T17:39:43.124Z,13.46
2023-05-15T17:42:10.975Z,13.51
2023-05-15T17:44:38.771Z,13.59
2023-05-15T17:47:06.787Z,13.43
2023-05-15T17:49:35.929Z,13.47
2023-05-15T17:52:03.773Z,13.58
2023-05-15T17:54:31.570Z,14.44
2023-05-15T17:56:59.646Z,15.47
2023-05-15T17:59:27.538Z,16.21
2023-05-15T18:01:55.432Z,16.58
2023-05-15T18:04:23.464Z,16.41
2023-05-15T18:06:52.673Z,15.67
2023-05-15T18:09:23.177Z,14.29
2023-05-15T18:11:52.058Z,13.61
2023-05-15T18:14:19.890Z,13.18
2023-05-15T18:16:47.710Z,12.70
2023-05-15T18:19:18.153Z,12.52
2023-05-15T18:21:49.327Z,12.27
2023-05-15T18:24:18.531Z,12.17
2023-05-15T18:26:46.641Z,12.12
2023-05-15T18:29:14.407Z,11.99
2023-05-15T18:31:42.296Z,11.88
2023-05-15T18:34:10.288Z,11.83
2023-05-15T18:36:38.161Z,11.79
2023-05-15T18:39:06.160Z,11.72
2023-05-15T18:41:35.287Z,11.62
2023-05-15T18:44:03.296Z,11.50
2023-05-15T18:46:31.722Z,11.38
2023-05-15T18:48:59.724Z,11.31
2023-05-15T18:51:27.557Z,11.21
2023-05-15T18:53:55.368Z,11.11
2023-05-15T18:56:23.495Z,11.04
2023-05-15T18:58:52.648Z,10.99
2023-05-15T19:01:20.511Z,10.93
2023-05-15T19:03:48.416Z,10.90
2023-05-15T19:06:19.782Z,10.82
2023-05-15T19:08:48.302Z,10.79
2023-05-15T19:11:16.142Z,10.73
2023-05-15T19:13:44.010Z,10.67
2023-05-15T19:16:13.273Z,10.62
2023-05-15T19:18:41.141Z,10.55
2023-05-15T19:21:08.975Z,10.51
2023-05-15T19:23:36.875Z,10.49
2023-05-15T19:26:04.663Z,10.44
2023-05-15T19:28:32.456Z,10.36
2023-05-15T19:31:00.329Z,10.41
2023-05-15T19:33:29.483Z,10.35
2023-05-15T19:35:57.332Z,10.27
2023-05-15T19:38:25.486Z,10.24
2023-05-15T19:40:54.063Z,10.18
2023-05-15T19:43:21.871Z,10.17
2023-05-15T19:45:49.689Z,10.11
2023-05-15T19:48:19.441Z,10.09
2023-05-15T19:50:48.624Z,10.07
2023-05-15T19:53:16.512Z,10.05
2023-05-15T19:55:44.265Z,10.03
2023-05-15T19:58:12.211Z,10.03
2023-05-15T20:00:40.886Z,9.99
2023-05-15T20:03:09.267Z,9.90
2023-05-15T20:05:40.486Z,9.91
2023-05-15T20:08:09.788Z,9.91
2023-05-15T20:10:37.594Z,9.87
2023-05-15T20:13:05.898Z,9.79
2023-05-15T20:15:35.117Z,9.76
2023-05-15T20:18:02.992Z,9.76
2023-05-15T20:20:31.133Z,9.77
2023-05-15T20:22:59.156Z,9.73
2023-05-15T20:25:29.128Z,9.69
2023-05-15T20:27:58.647Z,9.66
2023-05-15T20:30:28.480Z,9.62
2023-05-15T20:32:56.577Z,9.62
2023-05-15T20:35:25.163Z,9.60
2023-05-15T20:37:53.186Z,9.60
2023-05-15T20:40:22.881Z,9.60
2023-05-15T20:42:52.651Z,9.56
2023-05-15T20:45:20.765Z,9.55
2023-05-15T20:47:49.839Z,9.54
2023-05-15T20:50:19.786Z,9.55
2023-05-15T20:52:47.745Z,9.54
2023-05-15T20:55:17.107Z,9.55
2023-05-15T20:57:45.774Z,9.52
2023-05-15T21:00:16.937Z,9.52
2023-05-15T21:02:45.676Z,9.61
2023-05-15T21:05:13.872Z,9.72
2023-05-15T21:07:42.300Z,9.69
2023-05-15T21:10:10.534Z,9.72
2023-05-15T21:12:38.298Z,9.76
2023-05-15T21:15:07.353Z,9.72
2023-05-15T21:17:36.591Z,9.80
2023-05-15T21:20:05.074Z,9.86
2023-05-15T21:22:33.166Z,9.90
2023-05-15T21:25:01.003Z,9.91
2023-05-15T21:27:28.820Z,9.93
2023-05-15T21:29:56.639Z,10.00
2023-05-15T21:32:24.669Z,10.09
2023-05-15T21:34:53.850Z,10.05
2023-05-15T21:37:21.649Z,10.00
2023-05-15T21:39:49.580Z,10.09
2023-05-15T21:42:17.359Z,10.06
2023-05-15T21:44:45.205Z,10.16
2023-05-15T21:47:13.029Z,10.19
2023-05-15T21:49:40.859Z,10.24
2023-05-15T21:52:10.198Z,10.19
2023-05-15T21:54:38.047Z,10.19
2023-05-15T21:57:06.161Z,10.18
2023-05-15T21:59:33.992Z,10.19
2023-05-15T22:02:01.891Z,10.18
2023-05-15T22:04:30.285Z,10.15
2023-05-15T22:06:58.112Z,10.18
2023-05-15T22:09:27.286Z,10.21
2023-05-15T22:11:55.060Z,10.52
2023-05-15T22:14:22.841Z,11.06
2023-05-15T22:16:51.027Z,11.27
2023-05-15T22:19:32.020Z,11.49
2023-05-15T22:22:00.856Z,11.65
2023-05-15T22:24:30.027Z,11.80
2023-05-15T22:27:00.223Z,11.68
2023-05-15T22:29:28.180Z,11.76
2023-05-15T22:31:56.114Z,11.90
2023-05-15T22:34:25.337Z,11.80
2023-05-15T22:39:21.854Z,11.69
2023-05-15T22:41:51.041Z,11.42
2023-05-15T22:44:18.881Z,11.39
2023-05-15T22:46:46.883Z,11.34
2023-05-15T22:49:25.738Z,11.42
2023-05-15T22:51:55.120Z,11.67
2023-05-15T22:54:23.578Z,11.56
2023-05-15T22:56:53.842Z,11.67
2023-05-15T22:59:21.888Z,11.70
2023-05-15T23:01:51.370Z,11.84
2023-05-15T23:04:19.530Z,11.92
2023-05-15T23:06:47.531Z,12.05
2023-05-15T23:09:15.347Z,12.03
2023-05-15T23:11:43.244Z,11.73
2023-05-15T23:14:14.036Z,11.80
2023-05-15T23:16:41.828Z,11.82
2023-05-15T23:19:10.089Z,11.75
2023-05-15T23:21:38.035Z,11.60
2023-05-15T23:24:06.409Z,11.59
2023-05-15T23:26:34.240Z,11.52
2023-05-15T23:29:02.064Z,11.05
2023-05-15T23:31:32.720Z,11.31
2023-05-15T23:34:00.691Z,11.23
2023-05-15T23:36:28.523Z,11.34
2023-05-15T23:38:56.300Z,11.60
2023-05-15T23:41:24.125Z,11.71
2023-05-15T23:43:52.055Z,11.70
2023-05-15T23:46:19.976Z,11.61
2023-05-15T23:48:49.110Z,11.35
2023-05-15T23:51:16.954Z,11.56
2023-05-15T23:53:44.726Z,11.51
2023-05-15T23:56:12.530Z,11.45
2023-05-15T23:58:40.318Z,11.25
